Time;durP1;ratioP1;P1;durP2;ratioP2;P2;SDS_P1;SDS_P2;PMS_P1;PMS_P2;Temp;Humidity;BMP_temperature;BMP_pressure;BME280_temperature;BME280_humidity;BME280_pressure;Samples;Min_cycle;Max_cycle;Signal;HPM_P1;HPM_P2
2023/10/24 00:01:54;;;;;;;15.70;14.70;;;12.30;1.00;;;;;;4862604;29;20259;-43
2023/10/24 00:04:19;;;;;;;14.97;13.97;;;12.20;1.00;;;;;;4854289;29;20277;-40
2023/10/24 00:06:45;;;;;;;15.17;14.23;;;12.20;1.00;;;;;;4857253;29;20252;-41
2023/10/24 00:09:10;;;;;;;15.47;14.33;;;12.10;1.00;;;;;;4852259;29;20915;-41
2023/10/24 00:11:36;;;;;;;15.27;14.33;;;12.10;1.00;;;;;;4858846;29;20743;-41
2023/10/24 00:14:02;;;;;;;15.63;14.63;;;12.10;1.00;;;;;;4864243;29;20196;-40
2023/10/24 00:16:28;;;;;;;15.47;14.57;;;12.10;1.00;;;;;;4854635;29;20172;-40
2023/10/24 00:18:53;;;;;;;14.80;13.70;;;12.10;1.00;;;;;;4860283;29;20888;-40
2023/10/24 00:21:19;;;;;;;15.73;14.57;;;12.10;1.00;;;;;;4855880;29;20251;-42
2023/10/24 00:23:44;;;;;;;15.23;14.23;;;12.10;1.00;;;;;;4864046;29;20218;-42
2023/10/24 00:26:10;;;;;;;14.97;13.87;;;12.10;1.00;;;;;;4866007;29;20219;-41
2023/10/24 00:28:36;;;;;;;16.03;14.67;;;12.20;1.00;;;;;;4850059;29;20263;-41
2023/10/24 00:31:02;;;;;;;15.00;14.00;;;12.10;5.90;;;;;;4860047;29;20234;-41
2023/10/24 00:33:27;;;;;;;14.90;13.97;;;12.10;12.60;;;;;;4858043;29;20559;-45
2023/10/24 00:35:53;;;;;;;14.13;13.23;;;12.10;16.20;;;;;;4859160;29;20437;-44
2023/10/24 00:38:18;;;;;;;14.43;13.50;;;12.10;18.30;;;;;;4861437;29;20551;-40
2023/10/24 00:40:44;;;;;;;14.27;13.37;;;12.20;11.90;;;;;;4858249;29;20208;-45
2023/10/24 00:43:10;;;;;;;14.03;13.13;;;12.20;1.00;;;;;;4864016;29;20188;-41
2023/10/24 00:45:36;;;;;;;14.43;13.60;;;12.20;1.00;;;;;;4866868;29;20304;-40
2023/10/24 00:48:04;;;;;;;14.57;13.50;;;12.20;1.00;;;;;;4864933;29;20538;-40
2023/10/24 00:50:30;;;;;;;13.97;13.07;;;12.30;1.00;;;;;;4857587;29;20452;-44
2023/10/24 00:52:56;;;;;;;14.53;13.53;;;12.30;1.00;;;;;;4856958;29;20440;-42
2023/10/24 00:55:22;;;;;;;14.30;13.40;;;12.40;1.00;;;;;;4863123;29;20432;-39
2023/10/24 00:57:50;;;;;;;14.00;12.90;;;12.40;1.00;;;;;;4861620;29;20432;-40
2023/10/24 01:00:16;;;;;;;13.23;12.50;;;12.60;1.00;;;;;;4850126;29;20189;-42
2023/10/24 01:02:42;;;;;;;13.57;12.77;;;12.70;99.90;;;;;;4862119;29;20449;-44
2023/10/24 01:05:08;;;;;;;14.10;13.10;;;12.80;99.90;;;;;;4861223;29;20443;-43
2023/10/24 01:07:34;;;;;;;13.20;12.50;;;12.90;2.50;;;;;;4866298;29;20481;-43
2023/10/24 01:09:59;;;;;;;14.50;13.50;;;12.90;1.00;;;;;;4853250;29;20241;-41
2023/10/24 01:12:26;;;;;;;14.50;13.60;;;13.00;99.90;;;;;;4862233;29;20322;-44
2023/10/24 01:14:52;;;;;;;14.23;13.33;;;13.10;30.50;;;;;;4858416;29;20183;-41
2023/10/24 01:17:18;;;;;;;13.63;12.73;;;13.20;1.00;;;;;;4863042;29;20870;-40
2023/10/24 01:19:44;;;;;;;13.93;13.13;;;13.20;24.30;;;;;;4855203;29;20872;-39
2023/10/24 01:22:09;;;;;;;14.03;13.23;;;13.20;1.00;;;;;;4860503;29;20673;-48
2023/10/24 01:24:35;;;;;;;13.83;12.90;;;13.30;1.00;;;;;;4856000;29;20738;-40
2023/10/24 01:27:00;;;;;;;14.10;13.20;;;13.30;1.00;;;;;;4848787;29;20226;-45
2023/10/24 01:29:26;;;;;;;14.33;13.43;;;13.30;1.00;;;;;;4855523;29;20208;-40
2023/10/24 01:31:52;;;;;;;14.60;13.60;;;13.30;99.90;;;;;;4843362;29;20215;-45
2023/10/24 01:34:18;;;;;;;14.47;13.53;;;13.40;66.30;;;;;;4863700;29;20458;-40
2023/10/24 01:36:43;;;;;;;14.30;13.40;;;13.30;33.40;;;;;;4865495;29;20600;-44
2023/10/24 01:39:10;;;;;;;14.20;13.30;;;13.30;1.00;;;;;;4865507;29;20195;-41
2023/10/24 01:41:35;;;;;;;14.60;13.70;;;13.30;1.00;;;;;;4857534;29;20666;-41
2023/10/24 01:44:01;;;;;;;14.40;13.40;;;13.30;20.90;;;;;;4863509;29;20428;-43
2023/10/24 01:46:26;;;;;;;14.30;13.30;;;13.30;99.20;;;;;;4862902;29;20196;-40
2023/10/24 01:48:52;;;;;;;13.70;12.90;;;13.30;1.00;;;;;;4858056;29;20188;-45
2023/10/24 01:51:19;;;;;;;14.90;13.90;;;13.30;1.00;;;;;;4862488;29;20784;-42
2023/10/24 01:53:45;;;;;;;13.27;12.57;;;13.30;1.00;;;;;;4853375;29;20212;-40
2023/10/24 01:56:11;;;;;;;14.40;13.60;;;13.30;1.00;;;;;;4862198;29;20543;-41
2023/10/24 01:58:37;;;;;;;15.20;13.90;;;13.30;1.00;;;;;;4869135;29;20917;-41
2023/10/24 02:01:02;;;;;;;14.17;13.33;;;13.30;1.00;;;;;;4868486;29;20435;-41
2023/10/24 02:03:28;;;;;;;15.50;14.40;;;13.20;99.90;;;;;;4867547;29;20485;-41
2023/10/24 02:05:54;;;;;;;15.17;14.07;;;13.30;1.00;;;;;;4863898;29;20191;-42
2023/10/24 02:08:19;;;;;;;15.03;14.03;;;13.30;1.00;;;;;;4868724;29;20200;-40
2023/10/24 02:10:45;;;;;;;14.37;13.57;;;13.30;1.00;;;;;;4858839;29;20224;-41
2023/10/24 02:13:11;;;;;;;14.67;13.67;;;13.30;1.00;;;;;;4858734;29;20300;-42
2023/10/24 02:15:39;;;;;;;14.57;13.67;;;13.30;99.90;;;;;;4857645;29;20177;-43
2023/10/24 02:18:05;;;;;;;13.40;12.70;;;13.30;99.90;;;;;;4859972;29;20259;-41
2023/10/24 02:20:31;;;;;;;13.90;13.10;;;13.30;99.90;;;;;;4842613;29;20870;-42
2023/10/24 02:22:56;;;;;;;14.60;13.60;;;13.30;99.90;;;;;;4865020;29;20194;-47
2023/10/24 02:25:22;;;;;;;14.37;13.47;;;13.30;99.90;;;;;;4860983;29;20188;-46
2023/10/24 02:27:48;;;;;;;14.30;13.40;;;13.30;99.90;;;;;;4868552;29;20199;-43
2023/10/24 02:30:13;;;;;;;14.83;13.83;;;13.30;99.90;;;;;;4862791;29;20307;-40
2023/10/24 02:32:39;;;;;;;14.40;13.50;;;13.30;99.90;;;;;;4867203;29;20576;-46
2023/10/24 02:35:05;;;;;;;13.90;13.00;;;13.40;99.90;;;;;;4863669;29;20181;-44
2023/10/24 02:37:30;;;;;;;15.20;14.10;;;13.40;89.90;;;;;;4866897;29;20228;-40
2023/10/24 02:39:56;;;;;;;13.93;13.10;;;13.40;39.70;;;;;;4861834;29;20767;-41
2023/10/24 02:42:21;;;;;;;15.20;13.80;;;13.30;1.00;;;;;;4861503;29;20299;-45
2023/10/24 02:44:50;;;;;;;14.93;14.00;;;13.30;1.00;;;;;;4862690;29;20599;-43
2023/10/24 02:47:16;;;;;;;15.80;14.70;;;13.30;1.00;;;;;;4867835;29;20192;-43
2023/10/24 02:49:41;;;;;;;14.13;13.20;;;13.30;1.00;;;;;;4862578;29;21043;-41
2023/10/24 02:52:07;;;;;;;14.57;13.60;;;13.30;1.00;;;;;;4853445;29;20471;-41
2023/10/24 02:54:33;;;;;;;14.33;13.30;;;13.30;1.00;;;;;;4864300;29;20271;-41
2023/10/24 02:56:59;;;;;;;15.03;14.13;;;13.30;1.00;;;;;;4860366;29;20333;-41
2023/10/24 02:59:25;;;;;;;14.00;13.10;;;13.30;99.90;;;;;;4867866;29;21004;-47
2023/10/24 03:01:50;;;;;;;14.00;13.10;;;13.40;99.90;;;;;;4858394;29;20858;-41
2023/10/24 03:04:16;;;;;;;14.80;13.73;;;13.40;99.90;;;;;;4863918;29;20485;-42
2023/10/24 03:06:41;;;;;;;14.20;13.20;;;13.40;99.90;;;;;;4861071;29;20677;-41
2023/10/24 03:09:07;;;;;;;13.93;13.03;;;13.30;99.90;;;;;;4865856;29;20599;-42
2023/10/24 03:11:33;;;;;;;14.60;13.70;;;13.30;99.90;;;;;;4857911;29;20351;-40
2023/10/24 03:13:58;;;;;;;14.57;13.47;;;13.30;99.90;;;;;;4863062;29;20240;-41
2023/10/24 03:16:24;;;;;;;15.40;14.20;;;13.30;99.90;;;;;;4847131;29;20940;-43
2023/10/24 03:18:49;;;;;;;14.83;13.73;;;13.30;99.90;;;;;;4856073;29;20236;-41
2023/10/24 03:21:15;;;;;;;15.50;14.50;;;13.20;99.90;;;;;;4865849;29;20572;-48
2023/10/24 03:23:41;;;;;;;14.23;13.43;;;13.30;99.90;;;;;;4866194;29;20192;-41
2023/10/24 03:26:07;;;;;;;15.13;14.23;;;13.20;99.90;;;;;;4867553;29;20450;-41
2023/10/24 03:28:33;;;;;;;15.50;14.33;;;13.20;99.90;;;;;;4867306;29;20564;-43
2023/10/24 03:31:02;;;;;;;14.80;13.90;;;13.20;99.90;;;;;;4860742;29;20766;-41
2023/10/24 03:33:29;;;;;;;15.03;14.03;;;13.10;1.00;;;;;;4835794;29;20441;-42
2023/10/24 03:35:54;;;;;;;13.50;12.60;;;13.10;1.00;;;;;;4862125;29;21130;-39
2023/10/24 03:38:20;;;;;;;14.13;13.10;;;13.00;1.00;;;;;;4863734;29;20417;-41
2023/10/24 03:40:45;;;;;;;13.80;13.00;;;13.00;1.00;;;;;;4854907;29;20249;-41
2023/10/24 03:43:11;;;;;;;15.50;14.40;;;13.00;1.00;;;;;;4853931;29;20185;-40
2023/10/24 03:45:37;;;;;;;14.87;13.97;;;12.90;1.00;;;;;;4865801;29;20187;-41
2023/10/24 03:48:03;;;;;;;14.30;13.30;;;12.80;83.90;;;;;;4857589;29;20233;-42
2023/10/24 03:50:29;;;;;;;14.10;13.20;;;12.90;99.90;;;;;;4863776;29;20456;-40
2023/10/24 03:52:54;;;;;;;14.47;13.60;;;12.90;99.90;;;;;;4853539;29;20469;-49
2023/10/24 03:55:20;;;;;;;15.43;14.33;;;12.90;56.20;;;;;;4863629;29;20196;-44
2023/10/24 03:57:46;;;;;;;14.80;13.70;;;13.00;43.60;;;;;;4861872;29;20654;-45
2023/10/24 04:00:12;;;;;;;13.83;12.93;;;12.90;1.00;;;;;;4846686;29;20914;-49
2023/10/24 04:02:38;;;;;;;14.27;13.37;;;13.00;1.00;;;;;;4856492;29;20661;-41
2023/10/24 04:05:04;;;;;;;13.83;13.03;;;12.90;1.00;;;;;;4866232;29;20420;-41
2023/10/24 04:07:30;;;;;;;14.60;13.50;;;12.90;1.00;;;;;;4866657;29;20282;-41
2023/10/24 04:09:57;;;;;;;14.07;13.17;;;12.90;1.00;;;;;;4867050;29;20992;-40
2023/10/24 04:12:22;;;;;;;13.33;12.47;;;12.90;99.90;;;;;;4854125;29;20554;-43
2023/10/24 04:14:48;;;;;;;14.33;13.40;;;12.80;86.80;;;;;;4866742;29;20416;-40
2023/10/24 04:17:13;;;;;;;13.67;12.87;;;12.80;99.90;;;;;;4858545;29;20687;-40
2023/10/24 04:19:39;;;;;;;15.07;13.50;;;12.80;99.90;;;;;;4858955;29;20234;-43
2023/10/24 04:22:04;;;;;;;13.60;12.70;;;12.80;99.90;;;;;;4855691;29;21023;-41
2023/10/24 04:24:30;;;;;;;13.53;12.73;;;12.80;99.90;;;;;;4850759;29;20192;-43
2023/10/24 04:26:56;;;;;;;14.23;13.13;;;12.70;99.90;;;;;;4857056;29;20181;-39
2023/10/24 04:29:22;;;;;;;13.60;12.80;;;12.70;1.00;;;;;;4866601;29;20689;-43
2023/10/24 04:31:48;;;;;;;14.33;13.23;;;12.70;99.90;;;;;;4853671;29;20484;-40
2023/10/24 04:34:14;;;;;;;14.63;13.73;;;12.70;99.90;;;;;;4855821;29;20235;-42
2023/10/24 04:36:39;;;;;;;15.90;14.70;;;12.70;1.00;;;;;;4864306;29;20589;-44
2023/10/24 04:39:06;;;;;;;14.27;13.37;;;12.70;1.00;;;;;;4866368;29;20655;-41
2023/10/24 04:41:31;;;;;;;15.27;14.17;;;12.80;1.00;;;;;;4865720;29;20914;-42
2023/10/24 04:43:57;;;;;;;15.43;14.23;;;12.80;1.00;;;;;;4858655;29;20826;-41
2023/10/24 04:46:23;;;;;;;13.80;12.80;;;12.90;99.90;;;;;;4851456;29;20204;-42
2023/10/24 04:48:49;;;;;;;14.40;13.40;;;12.90;99.90;;;;;;4857111;29;20520;-45
2023/10/24 04:51:15;;;;;;;13.60;12.70;;;12.90;95.10;;;;;;4866218;29;20473;-44
2023/10/24 04:53:40;;;;;;;13.90;13.00;;;12.80;1.00;;;;;;4856962;29;21139;-40
2023/10/24 04:56:06;;;;;;;13.10;12.20;;;12.80;1.00;;;;;;4858371;29;20284;-42
2023/10/24 04:58:32;;;;;;;14.00;13.10;;;12.90;1.00;;;;;;4851205;29;20269;-40
2023/10/24 05:00:57;;;;;;;15.57;13.97;;;12.90;1.00;;;;;;4844494;29;20880;-41
2023/10/24 05:03:23;;;;;;;14.50;13.50;;;12.90;1.00;;;;;;4859555;29;20880;-41
2023/10/24 05:05:49;;;;;;;14.70;13.70;;;12.90;99.90;;;;;;4855703;29;20611;-43
2023/10/24 05:08:14;;;;;;;13.30;12.40;;;12.90;99.90;;;;;;4850538;29;20192;-40
2023/10/24 05:10:40;;;;;;;12.77;12.07;;;12.90;87.40;;;;;;4855593;29;20659;-42
2023/10/24 05:13:06;;;;;;;13.40;12.50;;;13.00;55.20;;;;;;4839346;29;20262;-43
2023/10/24 05:15:31;;;;;;;14.00;13.10;;;12.90;1.00;;;;;;4865574;29;20180;-40
2023/10/24 05:17:57;;;;;;;15.03;14.10;;;12.90;1.00;;;;;;4864643;29;20638;-41
2023/10/24 05:20:23;;;;;;;13.87;12.87;;;12.90;1.00;;;;;;4863779;29;20195;-42
2023/10/24 05:22:49;;;;;;;13.30;12.40;;;12.90;1.00;;;;;;4842008;29;20197;-46
2023/10/24 05:25:15;;;;;;;14.07;13.10;;;12.90;1.00;;;;;;4860524;29;20187;-41
2023/10/24 05:27:41;;;;;;;12.70;12.00;;;12.90;1.00;;;;;;4853051;29;20218;-44
2023/10/24 05:30:07;;;;;;;13.70;12.73;;;12.90;1.00;;;;;;4853243;29;20567;-42
2023/10/24 05:32:33;;;;;;;14.40;13.17;;;12.80;28.50;;;;;;4853139;29;20695;-44
2023/10/24 05:34:59;;;;;;;14.10;13.03;;;12.80;55.40;;;;;;4849142;29;20484;-40
2023/10/24 05:37:24;;;;;;;14.07;13.27;;;12.90;26.70;;;;;;4849731;29;20746;-40
2023/10/24 05:39:50;;;;;;;14.80;13.80;;;12.90;1.00;;;;;;4851467;29;20180;-40
2023/10/24 05:42:15;;;;;;;14.57;13.67;;;12.80;1.00;;;;;;4851783;29;20253;-41
2023/10/24 05:44:41;;;;;;;14.70;13.60;;;12.90;1.00;;;;;;4850531;29;20196;-41
2023/10/24 05:47:07;;;;;;;13.33;12.43;;;12.90;1.00;;;;;;4848639;29;20192;-44
2023/10/24 05:49:34;;;;;;;13.97;13.07;;;13.00;1.00;;;;;;4851363;29;20563;-46
2023/10/24 05:51:59;;;;;;;14.70;13.50;;;13.00;1.00;;;;;;4852352;29;20203;-41
2023/10/24 05:54:25;;;;;;;13.63;12.70;;;13.00;1.00;;;;;;4833290;29;20425;-40
2023/10/24 05:56:50;;;;;;;13.43;12.63;;;13.00;1.00;;;;;;4850406;29;20267;-41
2023/10/24 05:59:16;;;;;;;13.97;12.97;;;12.90;1.00;;;;;;4849747;29;20747;-40
2023/10/24 06:01:42;;;;;;;12.50;11.60;;;13.00;1.00;;;;;;4865223;29;20195;-39
2023/10/24 06:04:07;;;;;;;13.77;12.87;;;13.00;1.00;;;;;;4829391;29;20245;-40
2023/10/24 06:06:33;;;;;;;14.13;13.23;;;13.00;1.00;;;;;;4839572;29;20214;-41
2023/10/24 06:08:59;;;;;;;14.40;13.40;;;13.00;1.00;;;;;;4856681;29;20192;-41
2023/10/24 06:11:24;;;;;;;14.53;13.53;;;13.00;1.00;;;;;;4848332;29;20573;-40
2023/10/24 06:13:50;;;;;;;14.07;13.20;;;13.00;1.00;;;;;;4853060;29;20189;-40
2023/10/24 06:16:18;;;;;;;14.70;13.50;;;13.00;1.00;;;;;;4844560;29;20204;-40
2023/10/24 06:18:44;;;;;;;13.80;13.00;;;13.00;1.00;;;;;;4850186;29;20215;-40
2023/10/24 06:21:11;;;;;;;13.57;12.67;;;13.00;1.00;;;;;;4847115;29;20428;-40
2023/10/24 06:23:38;;;;;;;14.00;12.87;;;13.00;1.00;;;;;;4846699;29;20219;-40
2023/10/24 06:26:03;;;;;;;14.53;13.63;;;13.00;1.00;;;;;;4845897;29;20934;-41
2023/10/24 06:28:29;;;;;;;14.37;13.50;;;13.00;1.00;;;;;;4861453;29;20437;-42
2023/10/24 06:30:59;;;;;;;14.03;13.13;;;13.00;1.00;;;;;;4861522;29;20566;-42
2023/10/24 06:33:26;;;;;;;13.90;12.90;;;13.20;1.00;;;;;;4856162;29;20436;-40
2023/10/24 06:35:53;;;;;;;15.70;14.57;;;13.20;1.00;;;;;;4852267;29;20419;-45
2023/10/24 06:38:18;;;;;;;14.37;13.37;;;13.20;1.00;;;;;;4854853;29;20429;-41
2023/10/24 06:40:47;;;;;;;14.67;13.60;;;13.20;1.00;;;;;;4862187;29;20442;-41
2023/10/24 06:43:13;;;;;;;14.23;13.23;;;13.30;99.90;;;;;;4860546;29;20215;-42
2023/10/24 06:45:40;;;;;;;14.40;13.40;;;13.30;99.90;;;;;;4849700;29;20429;-41
2023/10/24 06:48:06;;;;;;;14.27;13.27;;;13.30;99.90;;;;;;4853221;29;20298;-42
2023/10/24 06:50:35;;;;;;;14.23;13.43;;;13.40;99.90;;;;;;4852304;29;21094;-40
2023/10/24 06:53:01;;;;;;;13.10;12.30;;;13.50;99.90;;;;;;4851450;29;20224;-42
2023/10/24 06:55:26;;;;;;;14.83;13.70;;;13.50;99.90;;;;;;4857624;29;20452;-41
2023/10/24 06:57:52;;;;;;;14.00;13.00;;;13.60;93.80;;;;;;4866679;29;20661;-44
2023/10/24 07:00:18;;;;;;;15.17;14.07;;;13.60;28.90;;;;;;4858850;29;20267;-42
2023/10/24 07:02:44;;;;;;;13.53;12.53;;;13.60;1.00;;;;;;4858210;29;20667;-44
2023/10/24 07:05:09;;;;;;;15.10;14.00;;;13.70;1.00;;;;;;4850985;29;20437;-41
2023/10/24 07:07:38;;;;;;;14.57;13.67;;;13.70;1.00;;;;;;4865610;29;20505;-41
2023/10/24 07:10:07;;;;;;;14.23;13.33;;;13.70;1.00;;;;;;4852835;29;20200;-40
2023/10/24 07:12:33;;;;;;;15.63;14.43;;;13.80;1.00;;;;;;4856118;29;20484;-43
2023/10/24 07:14:59;;;;;;;14.57;13.40;;;13.90;1.00;;;;;;4859567;29;20451;-40
2023/10/24 07:17:25;;;;;;;15.67;14.37;;;13.90;1.00;;;;;;4861103;29;20427;-43
2023/10/24 07:19:51;;;;;;;15.13;14.03;;;14.00;1.00;;;;;;4858733;29;20808;-40
2023/10/24 07:22:16;;;;;;;15.50;14.40;;;14.10;99.90;;;;;;4850397;29;20950;-44
2023/10/24 07:24:42;;;;;;;15.13;14.17;;;14.10;99.90;;;;;;4858751;29;20215;-40
2023/10/24 07:27:11;;;;;;;14.60;13.70;;;14.20;99.90;;;;;;4858574;29;20197;-42
2023/10/24 07:29:37;;;;;;;15.40;14.30;;;14.30;99.90;;;;;;4859751;29;20491;-43
2023/10/24 07:32:03;;;;;;;14.67;13.67;;;14.40;99.90;;;;;;4864256;29;21254;-44
2023/10/24 07:34:33;;;;;;;14.37;13.27;;;14.50;99.90;;;;;;4857416;29;20485;-42
2023/10/24 07:36:59;;;;;;;15.07;13.87;;;14.50;2.70;;;;;;4858511;29;20443;-42
2023/10/24 07:39:24;;;;;;;14.37;13.50;;;14.60;1.00;;;;;;4851427;29;20444;-44
2023/10/24 07:41:50;;;;;;;14.63;13.60;;;14.70;1.00;;;;;;4867636;29;20471;-40
2023/10/24 07:44:15;;;;;;;15.17;14.27;;;14.70;1.00;;;;;;4867263;29;20283;-40
2023/10/24 07:46:41;;;;;;;13.87;12.87;;;14.80;1.00;;;;;;4855445;29;20198;-41
2023/10/24 07:49:06;;;;;;;14.60;13.60;;;15.00;1.00;;;;;;4867546;29;20201;-43
2023/10/24 07:51:33;;;;;;;14.10;13.20;;;15.10;1.00;;;;;;4856007;29;20714;-41
2023/10/24 07:53:58;;;;;;;14.50;13.50;;;15.20;99.90;;;;;;4866277;29;20229;-43
2023/10/24 07:56:24;;;;;;;14.57;13.70;;;15.30;99.90;;;;;;4855181;29;20991;-43
2023/10/24 07:58:50;;;;;;;13.87;12.97;;;15.40;99.90;;;;;;4849794;29;20230;-43
2023/10/24 08:01:18;;;;;;;15.60;14.60;;;15.50;99.90;;;;;;4858021;29;20199;-44
2023/10/24 08:03:44;;;;;;;15.43;14.40;;;15.30;99.90;;;;;;4866610;29;20872;-41
2023/10/24 08:06:10;;;;;;;14.97;14.07;;;15.20;99.90;;;;;;4859710;29;20465;-44
2023/10/24 08:08:35;;;;;;;15.40;14.50;;;15.10;99.90;;;;;;4859654;29;20437;-43
2023/10/24 08:11:01;;;;;;;15.80;14.80;;;15.20;99.90;;;;;;4865839;29;20564;-42
2023/10/24 08:13:27;;;;;;;15.60;14.40;;;15.20;99.90;;;;;;4866682;29;20192;-42
2023/10/24 08:15:53;;;;;;;16.27;15.10;;;15.30;99.90;;;;;;4858539;29;20185;-39
2023/10/24 08:18:19;;;;;;;16.30;14.90;;;15.40;99.90;;;;;;4866283;29;20643;-43
2023/10/24 08:20:45;;;;;;;15.10;14.20;;;15.70;99.90;;;;;;4860899;29;20633;-40
2023/10/24 08:23:11;;;;;;;16.13;15.03;;;15.90;99.90;;;;;;4864298;29;20433;-47
2023/10/24 08:25:36;;;;;;;15.87;14.87;;;16.30;99.90;;;;;;4861322;29;20267;-41
2023/10/24 08:28:02;;;;;;;15.83;14.70;;;16.50;91.10;;;;;;4863589;29;20790;-44
2023/10/24 08:30:31;;;;;;;16.90;15.40;;;16.70;8.30;;;;;;4863089;29;20180;-44
2023/10/24 08:32:57;;;;;;;15.03;14.07;;;16.90;1.00;;;;;;4846353;29;21017;-44
2023/10/24 08:35:23;;;;;;;16.60;15.50;;;17.20;1.00;;;;;;4857858;29;20425;-41
2023/10/24 08:37:49;;;;;;;17.53;16.23;;;17.50;1.00;;;;;;4863686;29;20488;-41
2023/10/24 08:40:15;;;;;;;17.50;16.20;;;17.70;1.00;;;;;;4866523;29;20436;-42
2023/10/24 08:42:41;;;;;;;17.13;15.87;;;17.90;1.00;;;;;;4863538;29;20286;-42
2023/10/24 08:45:08;;;;;;;17.23;16.13;;;18.40;1.00;;;;;;4866240;29;20188;-41
2023/10/24 08:47:35;;;;;;;17.93;16.73;;;18.70;1.00;;;;;;4865036;29;20459;-43
2023/10/24 08:50:01;;;;;;;18.20;16.90;;;18.90;1.00;;;;;;4866016;29;20436;-45
2023/10/24 08:52:29;;;;;;;16.80;15.70;;;18.90;1.00;;;;;;4865351;29;21207;-43
2023/10/24 08:54:57;;;;;;;17.20;16.00;;;18.90;1.00;;;;;;4866064;29;21053;-42
2023/10/24 08:57:27;;;;;;;18.33;16.90;;;18.70;1.00;;;;;;4856989;29;20547;-41
2023/10/24 08:59:55;;;;;;;18.30;17.10;;;18.50;1.00;;;;;;4848946;29;20467;-42
2023/10/24 09:02:21;;;;;;;16.73;15.63;;;18.30;1.00;;;;;;4857204;29;20906;-45
2023/10/24 09:04:49;;;;;;;18.50;16.97;;;18.00;1.00;;;;;;4866164;29;20775;-46
2023/10/24 09:07:15;;;;;;;17.43;16.13;;;18.10;1.00;;;;;;4858454;29;20425;-41
2023/10/24 09:09:40;;;;;;;19.40;18.00;;;18.20;1.00;;;;;;4865977;29;20439;-43
2023/10/24 09:12:08;;;;;;;19.10;17.50;;;18.10;1.00;;;;;;4860711;29;20239;-42
2023/10/24 09:14:33;;;;;;;17.50;16.10;;;18.10;1.00;;;;;;4866033;29;20188;-45
2023/10/24 09:17:01;;;;;;;20.03;18.40;;;18.10;1.00;;;;;;4861961;29;20443;-43
2023/10/24 09:19:27;;;;;;;19.00;17.60;;;17.40;1.00;;;;;;4865695;29;20203;-44
2023/10/24 09:21:56;;;;;;;19.57;17.70;;;17.00;1.00;;;;;;4857049;29;20979;-42
2023/10/24 09:24:22;;;;;;;18.57;17.13;;;16.80;1.00;;;;;;4848664;29;20448;-40
2023/10/24 09:26:59;;;;;;;18.17;16.70;;;16.70;1.00;;;;;;4865805;29;20440;-44
2023/10/24 09:29:27;;;;;;;17.87;16.47;;;16.70;1.00;;;;;;4866250;29;20508;-41
2023/10/24 09:31:54;;;;;;;19.63;18.03;;;16.70;1.00;;;;;;4859118;29;20979;-41
2023/10/24 09:34:20;;;;;;;19.97;18.43;;;16.60;1.00;;;;;;4861762;29;20431;-41
2023/10/24 09:36:46;;;;;;;20.13;18.53;;;16.50;1.00;;;;;;4860736;29;20429;-43
2023/10/24 09:39:13;;;;;;;20.50;18.50;;;16.60;1.00;;;;;;4865862;29;20251;-44
2023/10/24 09:41:43;;;;;;;20.23;18.73;;;16.70;1.00;;;;;;4862349;29;20718;-41
2023/10/24 09:44:09;;;;;;;20.83;18.80;;;16.80;1.00;;;;;;4845924;29;20862;-44
2023/10/24 09:46:36;;;;;;;20.77;19.07;;;16.80;1.00;;;;;;4863612;29;20522;-45
2023/10/24 09:49:03;;;;;;;20.87;19.17;;;16.90;1.00;;;;;;4844963;29;20488;-46
2023/10/24 09:51:31;;;;;;;19.60;18.03;;;17.20;1.00;;;;;;4864539;29;20806;-41
2023/10/24 09:53:57;;;;;;;20.53;19.03;;;17.30;1.00;;;;;;4861789;29;20499;-41
2023/10/24 09:56:24;;;;;;;18.57;17.10;;;17.30;1.00;;;;;;4863194;29;20916;-41
2023/10/24 09:58:50;;;;;;;19.70;18.17;;;17.30;1.00;;;;;;4862274;29;20504;-43
2023/10/24 10:01:17;;;;;;;20.43;18.73;;;17.40;1.00;;;;;;4862664;29;20436;-46
2023/10/24 10:03:44;;;;;;;20.03;18.43;;;17.30;1.00;;;;;;4865366;29;20491;-42
2023/10/24 10:06:13;;;;;;;20.37;18.77;;;17.30;1.00;;;;;;4868642;29;20416;-41
2023/10/24 10:08:41;;;;;;;20.83;19.07;;;17.30;1.00;;;;;;4857992;29;21082;-42
2023/10/24 10:11:07;;;;;;;21.27;19.50;;;17.30;1.00;;;;;;4868451;29;20514;-44
2023/10/24 10:13:37;;;;;;;19.87;18.17;;;17.60;1.00;;;;;;4858133;29;20784;-40
2023/10/24 10:16:33;;;;;;;20.80;19.10;;;17.80;1.00;;;;;;4869112;29;20849;-44
2023/10/24 10:19:20;;;;;;;21.73;19.93;;;17.90;1.00;;;;;;4860094;29;20481;-43
2023/10/24 10:22:10;;;;;;;21.60;19.87;;;18.10;1.00;;;;;;4856729;29;20436;-42
2023/10/24 10:25:00;;;;;;;20.47;18.90;;;18.20;1.00;;;;;;4851763;29;20472;-41
2023/10/24 10:27:51;;;;;;;19.77;18.23;;;18.60;1.00;;;;;;4865515;29;20920;-41
2023/10/24 10:30:37;;;;;;;22.07;20.27;;;18.80;1.00;;;;;;4868388;29;20753;-42
2023/10/24 10:33:09;;;;;;;19.20;17.77;;;18.90;1.00;;;;;;4865585;29;20829;-43
2023/10/24 10:35:53;;;;;;;19.90;18.40;;;18.80;1.00;;;;;;4868355;29;20432;-40
2023/10/24 10:38:25;;;;;;;19.40;17.90;;;19.10;1.00;;;;;;4866721;29;20466;-44
2023/10/24 10:40:51;;;;;;;19.47;17.97;;;19.30;1.00;;;;;;4868536;29;20423;-41
2023/10/24 10:43:35;;;;;;;19.03;17.63;;;19.50;1.00;;;;;;4867950;29;20788;-42
2023/10/24 10:46:36;;;;;;;19.47;17.97;;;19.50;1.00;;;;;;4868189;29;20482;-46
2023/10/24 10:49:04;;;;;;;20.77;19.20;;;19.00;1.00;;;;;;4792970;29;20938;-40
2023/10/24 10:51:32;;;;;;;20.57;19.07;;;18.80;1.00;;;;;;4853237;29;20521;-41
2023/10/24 10:54:13;;;;;;;20.40;18.83;;;18.40;1.00;;;;;;4858719;29;20432;-41
2023/10/24 10:56:39;;;;;;;20.90;19.20;;;17.80;1.00;;;;;;4865238;29;20420;-42
2023/10/24 10:59:08;;;;;;;19.80;18.30;;;17.80;1.00;;;;;;4859979;29;20428;-41
2023/10/24 11:01:55;;;;;;;19.57;18.07;;;17.70;1.00;;;;;;4868307;29;20436;-42
2023/10/24 11:04:20;;;;;;;20.10;18.40;;;17.70;1.00;;;;;;4861755;29;20424;-43
2023/10/24 11:06:53;;;;;;;19.73;18.03;;;17.60;1.00;;;;;;4867486;29;20484;-43
2023/10/24 11:09:21;;;;;;;19.20;17.70;;;17.50;1.00;;;;;;4859900;29;20623;-42
2023/10/24 11:11:47;;;;;;;20.83;19.00;;;17.50;1.00;;;;;;4867510;29;20983;-40
2023/10/24 11:14:19;;;;;;;19.67;18.07;;;17.30;1.00;;;;;;4865947;29;21755;-42
2023/10/24 11:16:48;;;;;;;19.30;17.50;;;17.30;1.00;;;;;;4867305;29;20443;-42
2023/10/24 11:19:24;;;;;;;19.70;18.20;;;17.30;1.00;;;;;;4860475;29;20432;-46
2023/10/24 11:21:52;;;;;;;19.50;18.10;;;17.30;1.00;;;;;;4859191;29;20447;-40
2023/10/24 11:24:20;;;;;;;19.83;18.33;;;17.20;1.00;;;;;;4856792;29;20516;-41
2023/10/24 11:26:47;;;;;;;20.37;18.87;;;17.10;1.00;;;;;;4850336;29;20429;-43
2023/10/24 11:29:13;;;;;;;20.87;19.27;;;17.00;1.00;;;;;;4851992;29;20429;-43
2023/10/24 11:31:41;;;;;;;20.53;18.93;;;17.00;1.00;;;;;;4855881;29;20554;-41
2023/10/24 11:34:10;;;;;;;20.97;19.37;;;17.00;1.00;;;;;;4859538;29;20433;-40
2023/10/24 11:36:35;;;;;;;20.50;18.60;;;17.00;1.00;;;;;;4867639;29;20420;-44
2023/10/24 11:39:04;;;;;;;19.10;17.70;;;16.90;1.00;;;;;;4861387;29;20428;-41
2023/10/24 11:41:29;;;;;;;18.93;17.43;;;16.80;1.00;;;;;;4867344;29;20207;-44
2023/10/24 11:43:55;;;;;;;18.97;17.57;;;16.90;1.00;;;;;;4862962;29;20429;-43
2023/10/24 11:46:20;;;;;;;18.10;16.70;;;16.90;1.00;;;;;;4867103;29;20188;-42
2023/10/24 11:48:46;;;;;;;19.53;18.03;;;16.70;1.00;;;;;;4864024;29;20199;-41
2023/10/24 11:51:12;;;;;;;19.27;17.67;;;16.80;1.00;;;;;;4866902;29;20211;-40
2023/10/24 11:53:38;;;;;;;20.00;18.13;;;16.80;1.00;;;;;;4865756;29;20786;-43
2023/10/24 11:56:06;;;;;;;19.53;17.90;;;16.90;1.00;;;;;;4865555;29;20752;-41
2023/10/24 11:58:32;;;;;;;20.90;18.97;;;16.80;1.00;;;;;;4849443;29;20667;-40
2023/10/24 12:01:00;;;;;;;21.33;19.53;;;16.70;1.00;;;;;;4856220;29;20448;-41
2023/10/24 12:03:26;;;;;;;22.77;20.97;;;16.80;1.00;;;;;;4866735;29;20424;-40
2023/10/24 12:05:54;;;;;;;20.60;18.90;;;16.70;1.00;;;;;;4840191;29;20435;-41
2023/10/24 12:08:24;;;;;;;20.63;18.93;;;16.80;1.00;;;;;;4866442;29;20932;-42
2023/10/24 12:10:56;;;;;;;19.97;18.47;;;16.70;1.00;;;;;;4858013;29;20815;-40
2023/10/24 12:13:25;;;;;;;20.83;19.00;;;16.80;1.00;;;;;;4850049;29;20447;-42
2023/10/24 12:15:51;;;;;;;22.27;20.63;;;16.90;1.00;;;;;;4860433;29;20535;-48
2023/10/24 12:18:17;;;;;;;20.73;18.93;;;16.90;1.00;;;;;;4866676;29;21200;-49
2023/10/24 12:20:43;;;;;;;21.33;19.63;;;17.00;1.00;;;;;;4855848;29;20429;-40
2023/10/24 12:23:08;;;;;;;21.40;19.70;;;17.00;1.00;;;;;;4866566;29;20188;-40
2023/10/24 12:25:35;;;;;;;23.43;21.53;;;16.90;1.00;;;;;;4859541;29;20223;-43
2023/10/24 12:28:00;;;;;;;22.07;20.27;;;16.80;1.00;;;;;;4851870;29;20220;-41
2023/10/24 12:30:26;;;;;;;22.07;20.17;;;16.70;1.00;;;;;;4857156;29;20515;-42
2023/10/24 12:32:52;;;;;;;22.90;20.83;;;16.60;1.00;;;;;;4865540;29;20542;-40